createdAt,value
2017-05-05T00:02:02.507Z,101299.58
2017-05-05T00:04:28.878Z,101297.11
2017-05-05T00:06:55.368Z,101300.98
2017-05-05T00:09:21.743Z,101307.30
2017-05-05T00:11:48.076Z,101300.67
2017-05-05T00:14:14.973Z,101298.19
2017-05-05T00:16:46.465Z,101300.21
2017-05-05T00:19:17.330Z,101301.63
2017-05-05T00:21:43.787Z,101298.48
2017-05-05T00:24:10.148Z,101302.69
2017-05-05T00:26:36.510Z,101296.92
2017-05-05T00:29:02.830Z,101299.11
2017-05-05T00:31:29.562Z,101298.51
2017-05-05T00:33:55.943Z,101296.30
2017-05-05T00:36:22.266Z,101300.06
2017-05-05T00:38:49.277Z,101295.73
2017-05-05T00:41:15.987Z,101296.13
2017-05-05T00:43:42.311Z,101291.52
2017-05-05T00:46:08.602Z,101289.78
2017-05-05T00:48:36.819Z,101287.20
2017-05-05T00:51:03.339Z,101287.14
2017-05-05T00:53:29.652Z,101280.58
2017-05-05T00:55:55.966Z,101280.38
2017-05-05T00:58:22.286Z,101279.53
2017-05-05T01:00:48.609Z,101269.98
2017-05-05T01:03:15.008Z,101276.56
2017-05-05T01:05:41.302Z,101270.19
2017-05-05T01:08:07.653Z,101275.11
2017-05-05T01:10:33.973Z,101275.80
2017-05-05T01:13:00.313Z,101273.98
2017-05-05T01:15:26.792Z,101272.30
2017-05-05T01:17:53.112Z,101275.74
2017-05-05T01:20:19.434Z,101278.30
2017-05-05T01:22:46.233Z,101282.61
2017-05-05T01:25:12.617Z,101274.73
2017-05-05T01:27:38.951Z,101278.91
2017-05-05T01:30:05.277Z,101270.77
2017-05-05T01:32:31.625Z,101276.75
2017-05-05T01:34:57.956Z,101271.41
2017-05-05T01:37:24.293Z,101269.66
2017-05-05T01:39:50.606Z,101270.07
2017-05-05T01:42:16.944Z,101273.52
2017-05-05T01:44:43.254Z,101279.59
2017-05-05T01:47:09.601Z,101273.84
2017-05-05T01:49:35.908Z,101273.52
2017-05-05T01:52:02.201Z,101275.81
2017-05-05T01:54:28.600Z,101272.02
2017-05-05T01:56:54.907Z,101273.52
2017-05-05T01:59:21.285Z,101273.27
2017-05-05T02:01:47.598Z,101270.56
2017-05-05T02:04:13.947Z,101275.79
2017-05-05T02:06:40.268Z,101276.58
2017-05-05T02:09:06.607Z,101280.23
2017-05-05T02:11:32.940Z,101276.73
2017-05-05T02:13:59.252Z,101283.36
2017-05-05T02:16:25.572Z,101284.52
2017-05-05T02:18:51.921Z,101282.59
2017-05-05T02:21:18.240Z,101282.34
2017-05-05T02:23:44.559Z,101287.11
2017-05-05T02:26:10.897Z,101277.17
2017-05-05T02:28:37.230Z,101287.52
2017-05-05T02:31:03.569Z,101285.03
2017-05-05T02:33:29.907Z,101287.30
2017-05-05T02:35:56.235Z,101284.47
2017-05-05T02:38:22.592Z,101280.97
2017-05-05T02:40:48.951Z,101282.03
2017-05-05T02:43:15.284Z,101285.83
2017-05-05T02:45:41.613Z,101283.81
2017-05-05T02:48:07.951Z,101284.78
2017-05-05T02:50:34.489Z,101280.61
2017-05-05T02:53:00.812Z,101284.78
2017-05-05T02:55:27.153Z,101281.36
2017-05-05T02:57:53.509Z,101282.94
2017-05-05T03:00:20.279Z,101280.64
2017-05-05T03:02:46.599Z,101276.50
2017-05-05T03:05:12.915Z,101278.30
2017-05-05T03:07:39.217Z,101277.66
2017-05-05T03:10:05.695Z,101272.16
2017-05-05T03:12:32.051Z,101277.70
2017-05-05T03:14:58.388Z,101281.06
2017-05-05T03:17:24.711Z,101273.38
2017-05-05T03:19:51.190Z,101276.50
2017-05-05T03:22:17.511Z,101275.50
2017-05-05T03:24:43.848Z,101278.78
2017-05-05T03:27:10.187Z,101281.55
2017-05-05T03:29:36.473Z,101284.59
2017-05-05T03:32:02.785Z,101285.42
2017-05-05T03:34:29.104Z,101280.20
2017-05-05T03:36:55.428Z,101278.42
2017-05-05T03:39:21.729Z,101276.52
2017-05-05T03:41:48.034Z,101279.39
2017-05-05T03:44:14.658Z,101282.16
2017-05-05T03:46:41.100Z,101281.45
2017-05-05T03:49:07.449Z,101287.30
2017-05-05T03:51:33.757Z,101284.70
2017-05-05T03:54:00.081Z,101289.25
2017-05-05T03:56:26.525Z,101281.08
2017-05-05T03:58:52.884Z,101282.83
2017-05-05T04:01:19.232Z,101289.48
2017-05-05T04:03:45.559Z,101278.86
2017-05-05T04:06:11.942Z,101279.59
2017-05-05T04:08:38.244Z,101284.36
2017-05-05T04:11:05.381Z,101282.33
2017-05-05T04:13:31.867Z,101290.05
2017-05-05T04:15:58.678Z,101288.81
2017-05-05T04:18:25.029Z,101284.72
2017-05-05T04:20:51.398Z,101291.75
2017-05-05T04:23:17.726Z,101282.19
2017-05-05T04:25:44.061Z,101280.40
2017-05-05T04:28:10.405Z,101283.13
2017-05-05T04:30:36.736Z,101288.08
2017-05-05T04:33:03.073Z,101289.28
2017-05-05T04:35:29.429Z,101287.83
2017-05-05T04:37:55.793Z,101289.66
2017-05-05T04:40:22.161Z,101288.58
2017-05-05T04:42:48.524Z,101289.30
2017-05-05T04:45:14.889Z,101296.06
2017-05-05T04:47:41.292Z,101300.27
2017-05-05T04:50:07.776Z,101300.27
2017-05-05T04:52:34.101Z,101302.14
2017-05-05T04:55:00.441Z,101304.14
2017-05-05T04:57:26.768Z,101302.55
2017-05-05T04:59:53.232Z,101305.72
2017-05-05T05:02:19.596Z,101305.86
2017-05-05T05:04:45.949Z,101311.08
2017-05-05T05:07:12.275Z,101310.73
2017-05-05T05:09:38.688Z,101306.75
2017-05-05T05:12:05.009Z,101307.53
2017-05-05T05:14:31.348Z,101317.66
2017-05-05T05:16:57.672Z,101311.39
2017-05-05T05:19:24.019Z,101312.89
2017-05-05T05:21:50.369Z,101318.41
2017-05-05T05:24:16.721Z,101311.74
2017-05-05T05:26:43.056Z,101314.20
2017-05-05T05:29:09.424Z,101315.20
2017-05-05T05:31:35.779Z,101313.53
2017-05-05T05:34:02.153Z,101318.03
2017-05-05T05:36:28.485Z,101316.68
2017-05-05T05:38:54.943Z,101315.18
2017-05-05T05:41:21.273Z,101325.20
2017-05-05T05:43:47.603Z,101323.62
2017-05-05T05:46:13.990Z,101322.48
2017-05-05T05:48:40.337Z,101317.84
2017-05-05T05:51:06.675Z,101322.77
2017-05-05T05:53:33.002Z,101322.39
2017-05-05T05:55:59.349Z,101324.78
2017-05-05T05:58:25.670Z,101331.52
2017-05-05T06:00:52.025Z,101334.84
2017-05-05T06:03:18.384Z,101333.11
2017-05-05T06:05:44.699Z,101342.23
2017-05-05T06:08:11.025Z,101338.23
2017-05-05T06:10:37.818Z,101335.91
2017-05-05T06:13:04.178Z,101330.88
2017-05-05T06:15:30.675Z,101326.25
2017-05-05T06:17:57.020Z,101326.45
2017-05-05T06:20:23.344Z,101330.83
2017-05-05T06:22:49.669Z,101335.20
2017-05-05T06:25:16.042Z,101334.34
2017-05-05T06:27:42.375Z,101334.52
2017-05-05T06:30:08.716Z,101340.47
2017-05-05T06:32:35.065Z,101336.47
2017-05-05T06:35:01.553Z,101341.38
2017-05-05T06:37:27.878Z,101348.48
2017-05-05T06:39:54.197Z,101347.62
2017-05-05T06:42:20.525Z,101347.98
2017-05-05T06:44:47.031Z,101354.36
2017-05-05T06:47:13.338Z,101354.44
2017-05-05T06:49:39.678Z,101360.03
2017-05-05T06:52:06.029Z,101355.22
2017-05-05T06:54:32.530Z,101354.99
2017-05-05T06:56:58.880Z,101351.98
2017-05-05T06:59:25.201Z,101356.95
2017-05-05T07:01:51.559Z,101351.87
2017-05-05T07:04:17.875Z,101352.44
2017-05-05T07:06:44.205Z,101348.93
2017-05-05T07:09:10.547Z,101352.16
2017-05-05T07:11:36.880Z,101345.22
2017-05-05T07:14:03.240Z,101348.89
2017-05-05T07:16:29.560Z,101348.81
2017-05-05T07:18:55.904Z,101346.73
2017-05-05T07:21:22.245Z,101354.84
2017-05-05T07:23:48.569Z,101352.00
2017-05-05T07:26:14.903Z,101355.55
2017-05-05T07:28:41.278Z,101349.72
2017-05-05T07:31:07.628Z,101358.05
2017-05-05T07:33:33.950Z,101353.02
2017-05-05T07:36:00.328Z,101355.14
2017-05-05T07:38:26.659Z,101366.13
2017-05-05T07:40:53.087Z,101366.08
2017-05-05T07:43:19.481Z,101360.41
2017-05-05T07:45:45.839Z,101370.10
2017-05-05T07:48:12.192Z,101365.55
2017-05-05T07:50:38.531Z,101369.05
2017-05-05T07:53:04.904Z,101371.98
2017-05-05T07:55:31.244Z,101368.64
2017-05-05T07:57:57.576Z,101363.73
2017-05-05T08:00:24.114Z,101364.30
2017-05-05T08:02:50.456Z,101366.73
2017-05-05T08:05:16.829Z,101365.55
2017-05-05T08:07:43.142Z,101367.45
2017-05-05T08:10:09.539Z,101362.09
2017-05-05T08:12:35.911Z,101366.63
2017-05-05T08:15:02.276Z,101360.56
2017-05-05T08:17:28.624Z,101361.14
2017-05-05T08:19:55.137Z,101353.91
2017-05-05T08:22:21.454Z,101359.64
2017-05-05T08:24:47.849Z,101358.34
2017-05-05T08:27:14.167Z,101355.55
2017-05-05T08:29:40.504Z,101363.64
2017-05-05T08:32:06.822Z,101362.60
2017-05-05T08:34:33.669Z,101355.89
2017-05-05T08:37:00.102Z,101360.66
2017-05-05T08:39:26.463Z,101363.84
2017-05-05T08:41:52.805Z,101355.53
2017-05-05T08:44:19.348Z,101354.22
2017-05-05T08:46:45.777Z,101357.30
2017-05-05T08:49:12.146Z,101353.62
2017-05-05T08:51:38.488Z,101361.48
2017-05-05T08:54:04.822Z,101351.73
2017-05-05T08:56:31.187Z,101361.25
2017-05-05T08:58:57.514Z,101359.08
2017-05-05T09:01:23.891Z,101360.20
2017-05-05T09:03:50.225Z,101367.06
2017-05-05T09:06:16.541Z,101367.89
2017-05-05T09:08:42.882Z,101372.14
2017-05-05T09:11:09.239Z,101366.25
2017-05-05T09:13:35.597Z,101364.84
2017-05-05T09:16:01.922Z,101364.16
2017-05-05T09:18:28.278Z,101363.95
2017-05-05T09:20:54.598Z,101367.73
2017-05-05T09:23:20.944Z,101372.23
2017-05-05T09:25:47.263Z,101367.57
2017-05-05T09:28:13.591Z,101362.86
2017-05-05T09:30:39.927Z,101364.36
2017-05-05T09:33:06.269Z,101366.53
2017-05-05T09:35:32.586Z,101369.78
2017-05-05T09:37:58.906Z,101363.62
2017-05-05T09:40:25.278Z,101372.34
2017-05-05T09:42:51.619Z,101370.34
2017-05-05T09:45:17.976Z,101360.25
2017-05-05T09:47:44.316Z,101363.02
2017-05-05T09:50:10.670Z,101360.74
2017-05-05T09:52:37.024Z,101358.23
2017-05-05T09:55:03.366Z,101362.13
2017-05-05T09:57:29.721Z,101364.88
2017-05-05T09:59:56.067Z,101370.14
2017-05-05T10:02:22.387Z,101365.70
2017-05-05T10:04:48.718Z,101359.42
2017-05-05T10:07:15.033Z,101372.16
2017-05-05T10:09:41.380Z,101364.64
2017-05-05T10:12:07.712Z,101367.34
2017-05-05T10:14:34.176Z,101371.16
2017-05-05T10:17:00.530Z,101381.88
2017-05-05T10:19:26.854Z,101378.34
2017-05-05T10:21:53.174Z,101381.23
2017-05-05T10:24:19.593Z,101374.70
2017-05-05T10:26:45.933Z,101384.95
2017-05-05T10:29:12.283Z,101386.86
2017-05-05T10:31:38.641Z,101385.19
2017-05-05T10:34:04.996Z,101383.48
2017-05-05T10:36:33.727Z,101387.16
2017-05-05T10:39:00.061Z,101388.92
2017-05-05T10:41:26.409Z,101386.95
2017-05-05T10:43:52.757Z,101382.16
2017-05-05T10:46:19.114Z,101387.06
2017-05-05T10:48:45.453Z,101387.38
2017-05-05T10:51:11.814Z,101385.25
2017-05-05T10:53:38.173Z,101394.55
2017-05-05T10:56:04.499Z,101401.08
2017-05-05T10:58:30.850Z,101395.59
2017-05-05T11:00:57.201Z,101396.77
2017-05-05T11:03:23.658Z,101395.44
2017-05-05T11:05:50.000Z,101397.86
2017-05-05T11:08:16.374Z,101405.85
2017-05-05T11:10:42.727Z,101404.52
2017-05-05T11:13:09.139Z,101406.66
2017-05-05T11:15:35.500Z,101407.23
2017-05-05T11:18:01.852Z,101409.50
2017-05-05T11:20:28.235Z,101409.05
2017-05-05T11:22:54.674Z,101411.01
2017-05-05T11:25:21.051Z,101409.95
2017-05-05T11:27:47.392Z,101405.80
2017-05-05T11:30:13.735Z,101408.95
2017-05-05T11:32:40.170Z,101406.98
2017-05-05T11:35:06.516Z,101410.28
2017-05-05T11:37:32.866Z,101408.64
2017-05-05T11:39:59.216Z,101407.61
2017-05-05T11:42:25.657Z,101412.41
2017-05-05T11:44:52.014Z,101407.93
2017-05-05T11:47:18.370Z,101404.30
2017-05-05T11:49:44.739Z,101397.70
2017-05-05T11:52:11.083Z,101399.02
2017-05-05T11:54:37.423Z,101398.97
2017-05-05T11:57:03.755Z,101399.23
2017-05-05T11:59:30.132Z,101401.23
2017-05-05T12:01:56.466Z,101393.74
2017-05-05T12:04:22.803Z,101392.09
2017-05-05T12:06:49.154Z,101393.75
2017-05-05T12:09:15.474Z,101394.72
2017-05-05T12:11:41.817Z,101387.02
2017-05-05T12:14:08.221Z,101385.28
2017-05-05T12:16:35.098Z,101386.55
2017-05-05T12:19:01.559Z,101384.55
2017-05-05T12:21:27.902Z,101388.09
2017-05-05T12:23:54.265Z,101385.80
2017-05-05T12:26:20.600Z,101380.96
2017-05-05T12:28:46.996Z,101381.47
2017-05-05T12:31:13.358Z,101379.78
2017-05-05T12:33:39.704Z,101383.48
2017-05-05T12:36:06.046Z,101377.86
2017-05-05T12:38:32.451Z,101373.78
2017-05-05T12:40:58.789Z,101373.36
2017-05-05T12:43:25.142Z,101372.03
2017-05-05T12:45:51.482Z,101370.26
2017-05-05T12:48:17.807Z,101368.69
2017-05-05T12:50:44.143Z,101363.58
2017-05-05T12:53:10.480Z,101360.64
2017-05-05T12:55:36.831Z,101352.14
2017-05-05T12:58:03.167Z,101355.27
2017-05-05T13:00:29.520Z,101356.22
2017-05-05T13:02:55.874Z,101349.77
2017-05-05T13:05:22.211Z,101348.22
2017-05-05T13:07:48.590Z,101344.94
2017-05-05T13:10:15.001Z,101343.71
2017-05-05T13:12:41.360Z,101347.07
2017-05-05T13:15:07.716Z,101347.99
2017-05-05T13:17:34.078Z,101347.81
2017-05-05T13:20:00.433Z,101350.68
2017-05-05T13:22:26.778Z,101346.05
2017-05-05T13:24:53.695Z,101345.65
2017-05-05T13:27:20.036Z,101349.34
2017-05-05T13:29:46.364Z,101349.70
2017-05-05T13:32:12.682Z,101341.98
2017-05-05T13:34:45.176Z,101347.56
2017-05-05T13:37:11.744Z,101354.63
2017-05-05T13:39:38.100Z,101346.52
2017-05-05T13:42:04.620Z,101343.16
2017-05-05T13:44:30.972Z,101333.62
2017-05-05T13:46:57.328Z,101331.30
2017-05-05T13:49:23.686Z,101335.83
2017-05-05T13:51:50.283Z,101332.23
2017-05-05T13:54:16.672Z,101333.73
2017-05-05T13:56:42.972Z,101327.55
2017-05-05T13:59:09.339Z,101336.20
2017-05-05T14:01:35.713Z,101327.66
2017-05-05T14:04:05.000Z,101328.05
2017-05-05T14:06:31.600Z,101323.35
2017-05-05T14:09:01.005Z,101318.25
2017-05-05T14:11:28.059Z,101313.91
2017-05-05T14:13:54.395Z,101310.91
2017-05-05T14:16:20.737Z,101311.25
2017-05-05T14:18:47.289Z,101302.80
2017-05-05T14:21:13.844Z,101305.69
2017-05-05T14:23:40.247Z,101298.80
2017-05-05T14:26:06.816Z,101294.11
2017-05-05T14:28:36.593Z,101297.39
2017-05-05T14:31:03.059Z,101301.02
2017-05-05T14:33:29.392Z,101296.95
2017-05-05T14:35:55.778Z,101295.14
2017-05-05T14:38:23.255Z,101288.44
2017-05-05T14:40:49.587Z,101289.56
2017-05-05T14:43:15.937Z,101286.45
2017-05-05T14:45:42.300Z,101283.70
2017-05-05T14:48:08.590Z,101286.25
2017-05-05T14:50:34.930Z,101280.50
2017-05-05T14:53:01.282Z,101274.59
2017-05-05T14:55:27.852Z,101273.77
2017-05-05T14:57:55.705Z,101265.19
2017-05-05T15:00:22.997Z,101268.78
2017-05-05T15:02:50.285Z,101267.23
2017-05-05T15:05:16.761Z,101260.84
2017-05-05T15:07:43.306Z,101264.61
2017-05-05T15:10:09.933Z,101257.59
2017-05-05T15:12:37.252Z,101266.14
2017-05-05T15:15:03.687Z,101261.09
2017-05-05T15:17:30.527Z,101263.48
2017-05-05T15:19:57.605Z,101262.38
2017-05-05T15:22:24.120Z,101254.31
2017-05-05T15:24:50.468Z,101254.55
2017-05-05T15:27:17.688Z,101258.20
2017-05-05T15:29:44.418Z,101255.69
2017-05-05T15:32:10.938Z,101253.69
2017-05-05T15:34:39.206Z,101251.13
2017-05-05T15:37:06.415Z,101248.89
2017-05-05T15:39:33.857Z,101249.96
2017-05-05T15:42:00.878Z,101251.18
2017-05-05T15:44:27.563Z,101248.53
2017-05-05T15:46:54.575Z,101249.83
2017-05-05T15:49:20.909Z,101247.59
2017-05-05T15:51:47.260Z,101247.02
2017-05-05T15:54:13.737Z,101247.59
2017-05-05T15:56:40.156Z,101245.30
2017-05-05T15:59:06.533Z,101245.04
2017-05-05T16:01:32.885Z,101247.12
2017-05-05T16:03:59.354Z,101256.46
2017-05-05T16:06:25.689Z,101248.85
2017-05-05T16:08:52.214Z,101244.27
2017-05-05T16:11:18.599Z,101246.08
2017-05-05T16:13:44.939Z,101238.02
2017-05-05T16:16:11.311Z,101236.03
2017-05-05T16:18:37.622Z,101236.19
2017-05-05T16:21:03.937Z,101235.42
2017-05-05T16:23:30.249Z,101233.84
2017-05-05T16:25:57.480Z,101231.77
2017-05-05T16:28:23.834Z,101222.56
2017-05-05T16:30:50.192Z,101222.80
2017-05-05T16:33:16.807Z,101220.55
2017-05-05T16:35:43.135Z,101215.23
2017-05-05T16:38:09.917Z,101217.19
2017-05-05T16:40:37.181Z,101212.41
2017-05-05T16:43:03.728Z,101213.11
2017-05-05T16:45:31.066Z,101212.50
2017-05-05T16:47:58.134Z,101210.25
2017-05-05T16:50:24.862Z,101210.82
2017-05-05T16:52:51.882Z,101211.34
2017-05-05T16:55:18.506Z,101208.14
2017-05-05T16:57:45.730Z,101208.81
2017-05-05T17:00:12.238Z,101200.86
2017-05-05T17:02:39.351Z,101197.83
2017-05-05T17:05:06.240Z,101203.16
2017-05-05T17:07:33.265Z,101204.17
2017-05-05T17:09:59.570Z,101195.20
2017-05-05T17:12:25.914Z,101198.64
2017-05-05T17:14:52.288Z,101198.72
2017-05-05T17:17:18.659Z,101200.53
2017-05-05T17:19:45.135Z,101197.62
2017-05-05T17:22:11.495Z,101192.06
2017-05-05T17:24:37.835Z,101192.95
2017-05-05T17:27:04.194Z,101192.87
2017-05-05T17:29:30.700Z,101189.70
2017-05-05T17:31:57.063Z,101191.77
2017-05-05T17:34:23.456Z,101193.20
2017-05-05T17:36:49.841Z,101190.72
2017-05-05T17:39:16.348Z,101186.69
2017-05-05T17:41:42.719Z,101185.86
2017-05-05T17:44:09.093Z,101185.48
2017-05-05T17:46:35.414Z,101180.55
2017-05-05T17:49:01.800Z,101179.61
2017-05-05T17:51:28.153Z,101174.00
2017-05-05T17:53:54.502Z,101183.69
2017-05-05T17:56:20.838Z,101175.22
2017-05-05T17:58:47.376Z,101174.66
2017-05-05T18:01:13.708Z,101171.12
2017-05-05T18:03:40.056Z,101167.49
2017-05-05T18:06:06.414Z,101156.11
2017-05-05T18:08:32.993Z,101161.26
2017-05-05T18:10:59.377Z,101160.76
2017-05-05T18:13:25.753Z,101156.92
2017-05-05T18:15:58.391Z,101156.34
2017-05-05T18:18:24.798Z,101159.52
2017-05-05T18:20:52.870Z,101161.89
2017-05-05T18:23:21.758Z,101159.45
2017-05-05T18:25:49.458Z,101166.61
2017-05-05T18:28:17.415Z,101160.59
2017-05-05T18:30:45.533Z,101156.41
2017-05-05T18:33:13.406Z,101153.30
2017-05-05T18:35:41.426Z,101155.09
2017-05-05T18:38:09.305Z,101152.09
2017-05-05T18:40:37.067Z,101161.46
2017-05-05T18:43:03.476Z,101156.23
2017-05-05T18:45:29.871Z,101153.00
2017-05-05T18:47:56.257Z,101151.84
2017-05-05T18:50:22.598Z,101155.78
2017-05-05T18:52:49.811Z,101149.98
2017-05-05T18:55:16.182Z,101144.98
2017-05-05T18:57:42.587Z,101145.77
2017-05-05T19:00:08.994Z,101142.67
2017-05-05T19:02:35.406Z,101149.70
2017-05-05T19:05:01.775Z,101154.49
2017-05-05T19:07:28.904Z,101151.67
2017-05-05T19:09:56.136Z,101151.30
2017-05-05T19:12:23.175Z,101151.80
2017-05-05T19:14:49.836Z,101148.20
2017-05-05T19:17:16.253Z,101146.14
2017-05-05T19:19:42.676Z,101150.17
2017-05-05T19:22:09.281Z,101154.36
2017-05-05T19:24:36.220Z,101159.59
2017-05-05T19:27:02.623Z,101163.44
2017-05-05T19:29:28.969Z,101158.55
2017-05-05T19:31:55.577Z,101157.67
2017-05-05T19:34:22.199Z,101151.16
2017-05-05T19:36:48.635Z,101152.05
2017-05-05T19:39:15.600Z,101151.78
2017-05-05T19:41:42.619Z,101153.95
2017-05-05T19:44:09.065Z,101152.55
2017-05-05T19:46:36.613Z,101153.34
2017-05-05T19:49:03.109Z,101153.24
2017-05-05T19:51:31.342Z,101159.78
2017-05-05T19:53:59.639Z,101158.78
2017-05-05T19:56:27.948Z,101159.99
2017-05-05T19:58:55.145Z,101161.48
2017-05-05T20:01:22.765Z,101153.87
2017-05-05T20:03:49.426Z,101160.30
2017-05-05T20:06:16.684Z,101157.54
2017-05-05T20:08:43.328Z,101156.48
2017-05-05T20:11:09.788Z,101161.80
2017-05-05T20:13:37.021Z,101157.33
2017-05-05T20:16:03.403Z,101162.69
2017-05-05T20:18:30.685Z,101165.47
2017-05-05T20:20:59.344Z,101148.40
2017-05-05T20:23:27.357Z,101151.19
2017-05-05T20:25:55.079Z,101163.10
2017-05-05T20:28:22.160Z,101155.66
2017-05-05T20:30:49.853Z,101158.23
2017-05-05T20:33:16.386Z,101155.37
2017-05-05T20:35:42.800Z,101159.27
2017-05-05T20:38:09.395Z,101158.86
2017-05-05T20:40:36.516Z,101156.66
2017-05-05T20:43:03.341Z,101161.26
2017-05-05T20:45:33.619Z,101157.34
2017-05-05T20:48:01.634Z,101159.02
2017-05-05T20:50:29.397Z,101155.05
2017-05-05T20:52:57.103Z,101151.56
2017-05-05T20:55:24.297Z,101145.03
2017-05-05T20:57:51.420Z,101138.39
2017-05-05T21:00:18.150Z,101136.75
2017-05-05T21:02:45.737Z,101133.63
2017-05-05T21:05:12.466Z,101130.70
2017-05-05T21:07:39.038Z,101135.67
2017-05-05T21:10:05.882Z,101136.41
2017-05-05T21:12:32.251Z,101131.56
2017-05-05T21:14:58.825Z,101143.11
2017-05-05T21:17:25.832Z,101139.00
2017-05-05T21:19:52.218Z,101138.89
2017-05-05T21:22:18.821Z,101135.75
2017-05-05T21:24:45.220Z,101131.05
2017-05-05T21:27:11.582Z,101133.64
2017-05-05T21:29:38.293Z,101128.30
2017-05-05T21:32:04.653Z,101130.80
2017-05-05T21:34:31.113Z,101123.47
2017-05-05T21:36:57.474Z,101123.92
2017-05-05T21:39:24.023Z,101127.45
2017-05-05T21:41:50.402Z,101126.59
2017-05-05T21:44:16.746Z,101125.53
2017-05-05T21:46:43.502Z,101122.79
2017-05-05T21:49:09.886Z,101118.41
2017-05-05T21:51:36.236Z,101118.15
2017-05-05T21:54:02.703Z,101118.09
2017-05-05T21:56:29.214Z,101107.25
2017-05-05T21:58:55.592Z,101108.80
2017-05-05T22:01:21.936Z,101103.50
2017-05-05T22:03:48.309Z,101104.50
2017-05-05T22:06:14.810Z,101100.93
2017-05-05T22:08:41.164Z,101101.44
2017-05-05T22:11:07.616Z,101098.16
2017-05-05T22:13:33.951Z,101097.91
2017-05-05T22:16:00.481Z,101100.86
2017-05-05T22:18:26.834Z,101088.03
2017-05-05T22:20:53.150Z,101093.13
2017-05-05T22:23:19.543Z,101093.06
2017-05-05T22:25:45.916Z,101088.34
2017-05-05T22:28:12.301Z,101088.91
2017-05-05T22:30:38.672Z,101089.28
2017-05-05T22:33:05.111Z,101087.44
2017-05-05T22:35:31.458Z,101076.58
2017-05-05T22:38:01.307Z,101083.29
2017-05-05T22:40:31.731Z,101078.63
2017-05-05T22:43:01.823Z,101079.22
2017-05-05T22:45:31.780Z,101068.24
2017-05-05T22:48:01.774Z,101070.33
2017-05-05T22:50:31.953Z,101067.04
2017-05-05T22:53:01.880Z,101070.06
2017-05-05T22:55:31.820Z,101065.61
2017-05-05T22:58:03.349Z,101057.67
2017-05-05T23:00:33.370Z,101057.02
2017-05-05T23:03:03.268Z,101050.78
2017-05-05T23:05:33.099Z,101051.64
2017-05-05T23:08:03.101Z,101051.66
2017-05-05T23:10:32.842Z,101051.08
2017-05-05T23:13:02.357Z,101047.22
2017-05-05T23:15:31.879Z,101043.30
2017-05-05T23:18:01.791Z,101043.14
2017-05-05T23:20:31.911Z,101044.37
2017-05-05T23:23:01.990Z,101043.45
2017-05-05T23:25:32.359Z,101042.31
2017-05-05T23:28:02.367Z,101042.22
2017-05-05T23:30:32.105Z,101031.83
2017-05-05T23:33:02.438Z,101027.64
2017-05-05T23:35:32.407Z,101029.63
2017-05-05T23:38:01.938Z,101031.91
2017-05-05T23:40:31.720Z,101022.65
2017-05-05T23:43:01.338Z,101019.97
2017-05-05T23:45:31.469Z,101007.20
2017-05-05T23:48:01.815Z,101010.84
2017-05-05T23:53:05.556Z,101002.73
2017-05-05T23:55:35.677Z,101004.95
2017-05-05T23:58:05.852Z,101002.61
